sensor_id;sensor_type;location;lat;lon;timestamp;pressure;altitude;pressure_sealevel;temperature;humidity
61359;BME280;47228;46.762;23.598;2023-10-19T00:02:20;97149.61;;;2.84;79.80
61359;BME280;47228;46.762;23.598;2023-10-19T00:04:50;97142.79;;;2.82;79.94
61359;BME280;47228;46.762;23.598;2023-10-19T00:07:19;97137.90;;;2.82;80.06
61359;BME280;47228;46.762;23.598;2023-10-19T00:09:47;97139.15;;;2.82;79.87
61359;BME280;47228;46.762;23.598;2023-10-19T00:12:20;97137.90;;;2.80;79.73
61359;BME280;47228;46.762;23.598;2023-10-19T00:14:49;97134.15;;;2.78;79.48
61359;BME280;47228;46.762;23.598;2023-10-19T00:17:17;97138.15;;;2.76;79.66
61359;BME280;47228;46.762;23.598;2023-10-19T00:19:48;97139.71;;;2.73;79.67
61359;BME280;47228;46.762;23.598;2023-10-19T00:22:37;97136.59;;;2.69;79.82
61359;BME280;47228;46.762;23.598;2023-10-19T00:25:05;97133.20;;;2.70;80.20
61359;BME280;47228;46.762;23.598;2023-10-19T00:27:35;97130.59;;;2.68;80.29
61359;BME280;47228;46.762;23.598;2023-10-19T00:30:04;97125.48;;;2.66;80.23
61359;BME280;47228;46.762;23.598;2023-10-19T00:32:36;97120.09;;;2.65;80.14
61359;BME280;47228;46.762;23.598;2023-10-19T00:35:07;97122.27;;;2.66;80.42
61359;BME280;47228;46.762;23.598;2023-10-19T00:37:56;97127.41;;;2.65;80.05
61359;BME280;47228;46.762;23.598;2023-10-19T00:40:39;97130.80;;;2.63;80.15
61359;BME280;47228;46.762;23.598;2023-10-19T00:43:11;97132.89;;;2.63;80.26
61359;BME280;47228;46.762;23.598;2023-10-19T00:45:39;97131.56;;;2.60;80.24
61359;BME280;47228;46.762;23.598;2023-10-19T00:48:08;97128.77;;;2.60;80.42
61359;BME280;47228;46.762;23.598;2023-10-19T00:50:39;97125.61;;;2.58;80.41
61359;BME280;47228;46.762;23.598;2023-10-19T00:53:07;97126.26;;;2.57;80.45
61359;BME280;47228;46.762;23.598;2023-10-19T00:55:36;97119.13;;;2.57;80.40
61359;BME280;47228;46.762;23.598;2023-10-19T00:58:04;97111.16;;;2.56;80.49
61359;BME280;47228;46.762;23.598;2023-10-19T01:00:37;97109.69;;;2.57;80.58
61359;BME280;47228;46.762;23.598;2023-10-19T01:03:11;97112.67;;;2.57;80.44
61359;BME280;47228;46.762;23.598;2023-10-19T01:05:45;97113.26;;;2.55;80.21
61359;BME280;47228;46.762;23.598;2023-10-19T01:08:16;97112.50;;;2.50;80.13
61359;BME280;47228;46.762;23.598;2023-10-19T01:10:52;97108.92;;;2.45;80.10
61359;BME280;47228;46.762;23.598;2023-10-19T01:13:21;97105.30;;;2.41;80.12
61359;BME280;47228;46.762;23.598;2023-10-19T01:15:55;97110.54;;;2.40;80.55
61359;BME280;47228;46.762;23.598;2023-10-19T01:18:24;97103.20;;;2.38;80.62
61359;BME280;47228;46.762;23.598;2023-10-19T01:20:57;97097.36;;;2.39;80.57
61359;BME280;47228;46.762;23.598;2023-10-19T01:23:25;97091.95;;;2.37;80.20
61359;BME280;47228;46.762;23.598;2023-10-19T01:25:58;97089.28;;;2.34;79.95
61359;BME280;47228;46.762;23.598;2023-10-19T01:28:28;97089.99;;;2.30;80.01
61359;BME280;47228;46.762;23.598;2023-10-19T01:31:14;97090.15;;;2.29;80.04
61359;BME280;47228;46.762;23.598;2023-10-19T01:34:00;97087.59;;;2.28;80.22
61359;BME280;47228;46.762;23.598;2023-10-19T01:36:35;97079.27;;;2.26;80.28
61359;BME280;47228;46.762;23.598;2023-10-19T01:39:12;97075.88;;;2.25;80.42
61359;BME280;47228;46.762;23.598;2023-10-19T01:41:40;97071.39;;;2.24;80.41
61359;BME280;47228;46.762;23.598;2023-10-19T01:44:09;97069.03;;;2.22;80.31
61359;BME280;47228;46.762;23.598;2023-10-19T01:46:42;97071.04;;;2.19;80.06
61359;BME280;47228;46.762;23.598;2023-10-19T01:49:14;97071.69;;;2.18;80.39
61359;BME280;47228;46.762;23.598;2023-10-19T01:51:42;97072.35;;;2.18;80.56
61359;BME280;47228;46.762;23.598;2023-10-19T01:54:11;97066.44;;;2.16;80.23
61359;BME280;47228;46.762;23.598;2023-10-19T01:56:42;97061.15;;;2.15;80.48
61359;BME280;47228;46.762;23.598;2023-10-19T01:59:11;97057.13;;;2.15;80.58
61359;BME280;47228;46.762;23.598;2023-10-19T02:01:39;97053.70;;;2.16;80.64
61359;BME280;47228;46.762;23.598;2023-10-19T02:04:13;97047.44;;;2.16;80.50
61359;BME280;47228;46.762;23.598;2023-10-19T02:06:41;97048.70;;;2.12;80.44
61359;BME280;47228;46.762;23.598;2023-10-19T02:09:10;97047.77;;;2.07;80.18
61359;BME280;47228;46.762;23.598;2023-10-19T02:11:47;97047.11;;;2.02;80.32
61359;BME280;47228;46.762;23.598;2023-10-19T02:14:17;97042.70;;;1.99;80.66
61359;BME280;47228;46.762;23.598;2023-10-19T02:16:52;97038.14;;;2.00;81.08
61359;BME280;47228;46.762;23.598;2023-10-19T02:19:25;97033.95;;;2.02;81.04
61359;BME280;47228;46.762;23.598;2023-10-19T02:21:56;97033.89;;;2.03;81.00
61359;BME280;47228;46.762;23.598;2023-10-19T02:24:25;97035.40;;;2.02;80.79
61359;BME280;47228;46.762;23.598;2023-10-19T02:26:57;97033.77;;;1.97;80.39
61359;BME280;47228;46.762;23.598;2023-10-19T02:29:25;97041.19;;;1.93;80.48
61359;BME280;47228;46.762;23.598;2023-10-19T02:31:54;97043.68;;;1.89;80.74
61359;BME280;47228;46.762;23.598;2023-10-19T02:34:24;97042.50;;;1.87;81.11
61359;BME280;47228;46.762;23.598;2023-10-19T02:36:52;97049.59;;;1.86;81.02
61359;BME280;47228;46.762;23.598;2023-10-19T02:39:20;97056.13;;;1.85;81.29
61359;BME280;47228;46.762;23.598;2023-10-19T02:41:49;97059.68;;;1.86;81.15
61359;BME280;47228;46.762;23.598;2023-10-19T02:44:19;97055.76;;;1.87;81.37
61359;BME280;47228;46.762;23.598;2023-10-19T02:46:55;97051.83;;;1.88;81.38
61359;BME280;47228;46.762;23.598;2023-10-19T02:49:37;97053.14;;;1.88;81.60
61359;BME280;47228;46.762;23.598;2023-10-19T02:52:11;97045.94;;;1.89;81.33
61359;BME280;47228;46.762;23.598;2023-10-19T02:54:43;97040.30;;;1.89;81.52
61359;BME280;47228;46.762;23.598;2023-10-19T02:57:12;97036.13;;;1.91;81.38
61359;BME280;47228;46.762;23.598;2023-10-19T02:59:41;97032.42;;;1.89;81.22
61359;BME280;47228;46.762;23.598;2023-10-19T03:02:09;97029.38;;;1.87;81.17
61359;BME280;47228;46.762;23.598;2023-10-19T03:04:41;97024.47;;;1.84;81.01
61359;BME280;47228;46.762;23.598;2023-10-19T03:07:10;97027.11;;;1.80;80.92
61359;BME280;47228;46.762;23.598;2023-10-19T03:09:44;97030.27;;;1.78;81.14
61359;BME280;47228;46.762;23.598;2023-10-19T03:12:21;97024.92;;;1.77;81.19
61359;BME280;47228;46.762;23.598;2023-10-19T03:14:53;97018.27;;;1.74;80.94
61359;BME280;47228;46.762;23.598;2023-10-19T03:17:21;97012.88;;;1.70;80.61
61359;BME280;47228;46.762;23.598;2023-10-19T03:19:49;97011.71;;;1.68;81.02
61359;BME280;47228;46.762;23.598;2023-10-19T03:22:18;97008.10;;;1.65;81.08
61359;BME280;47228;46.762;23.598;2023-10-19T03:24:47;97000.90;;;1.64;81.33
61359;BME280;47228;46.762;23.598;2023-10-19T03:27:15;96999.52;;;1.62;81.24
61359;BME280;47228;46.762;23.598;2023-10-19T03:29:51;97001.23;;;1.61;81.14
61359;BME280;47228;46.762;23.598;2023-10-19T03:32:28;97001.76;;;1.59;81.18
61359;BME280;47228;46.762;23.598;2023-10-19T03:35:03;97006.98;;;1.58;81.37
61359;BME280;47228;46.762;23.598;2023-10-19T03:37:32;97005.48;;;1.57;81.26
61359;BME280;47228;46.762;23.598;2023-10-19T03:40:03;97004.00;;;1.56;81.31
61359;BME280;47228;46.762;23.598;2023-10-19T03:42:35;96998.34;;;1.57;81.57
61359;BME280;47228;46.762;23.598;2023-10-19T03:45:08;96991.40;;;1.58;81.59
61359;BME280;47228;46.762;23.598;2023-10-19T03:47:45;96983.58;;;1.58;81.49
61359;BME280;47228;46.762;23.598;2023-10-19T03:50:17;96976.95;;;1.60;82.10
61359;BME280;47228;46.762;23.598;2023-10-19T03:52:49;96976.59;;;1.63;82.01
61359;BME280;47228;46.762;23.598;2023-10-19T03:55:17;96970.84;;;1.63;81.37
61359;BME280;47228;46.762;23.598;2023-10-19T03:57:51;96969.58;;;1.60;81.09
61359;BME280;47228;46.762;23.598;2023-10-19T04:00:23;96969.17;;;1.57;80.98
61359;BME280;47228;46.762;23.598;2023-10-19T04:02:56;96972.59;;;1.52;80.84
61359;BME280;47228;46.762;23.598;2023-10-19T04:05:27;96969.09;;;1.47;80.84
61359;BME280;47228;46.762;23.598;2023-10-19T04:07:56;96964.23;;;1.45;80.99
61359;BME280;47228;46.762;23.598;2023-10-19T04:10:25;96971.21;;;1.41;80.76
61359;BME280;47228;46.762;23.598;2023-10-19T04:13:02;96972.27;;;1.38;80.86
61359;BME280;47228;46.762;23.598;2023-10-19T04:15:31;96965.42;;;1.35;80.89
61359;BME280;47228;46.762;23.598;2023-10-19T04:18:03;96960.92;;;1.33;81.35
61359;BME280;47228;46.762;23.598;2023-10-19T04:20:39;96958.20;;;1.30;81.29
61359;BME280;47228;46.762;23.598;2023-10-19T04:23:24;96952.96;;;1.30;81.49
61359;BME280;47228;46.762;23.598;2023-10-19T04:25:55;96959.14;;;1.29;81.57
61359;BME280;47228;46.762;23.598;2023-10-19T04:28:31;96959.27;;;1.28;81.69
61359;BME280;47228;46.762;23.598;2023-10-19T04:31:06;96959.30;;;1.30;82.13
61359;BME280;47228;46.762;23.598;2023-10-19T04:33:35;96956.73;;;1.31;82.33
61359;BME280;47228;46.762;23.598;2023-10-19T04:36:03;96951.52;;;1.34;82.56
61359;BME280;47228;46.762;23.598;2023-10-19T04:38:31;96948.55;;;1.41;82.76
61359;BME280;47228;46.762;23.598;2023-10-19T04:41:08;96934.36;;;1.45;82.42
61359;BME280;47228;46.762;23.598;2023-10-19T04:43:37;96921.49;;;1.48;82.12
61359;BME280;47228;46.762;23.598;2023-10-19T04:46:08;96912.13;;;1.48;81.99
61359;BME280;47228;46.762;23.598;2023-10-19T04:48:40;96916.16;;;1.48;81.94
61359;BME280;47228;46.762;23.598;2023-10-19T04:51:08;96913.98;;;1.47;81.88
61359;BME280;47228;46.762;23.598;2023-10-19T04:53:39;96909.52;;;1.46;81.68
61359;BME280;47228;46.762;23.598;2023-10-19T04:56:08;96907.47;;;1.44;81.59
61359;BME280;47228;46.762;23.598;2023-10-19T04:58:40;96907.98;;;1.42;81.65
61359;BME280;47228;46.762;23.598;2023-10-19T05:01:09;96913.94;;;1.42;81.81
61359;BME280;47228;46.762;23.598;2023-10-19T05:03:40;96913.20;;;1.46;82.30
61359;BME280;47228;46.762;23.598;2023-10-19T05:06:08;96914.08;;;1.51;82.40
61359;BME280;47228;46.762;23.598;2023-10-19T05:08:39;96912.56;;;1.58;82.64
61359;BME280;47228;46.762;23.598;2023-10-19T05:11:07;96911.59;;;1.64;82.55
61359;BME280;47228;46.762;23.598;2023-10-19T05:13:35;96920.09;;;1.71;82.37
61359;BME280;47228;46.762;23.598;2023-10-19T05:16:03;96926.21;;;1.74;82.19
61359;BME280;47228;46.762;23.598;2023-10-19T05:18:32;96928.30;;;1.80;82.27
61359;BME280;47228;46.762;23.598;2023-10-19T05:21:00;96927.27;;;1.85;82.27
61359;BME280;47228;46.762;23.598;2023-10-19T05:23:28;96930.66;;;1.89;81.93
61359;BME280;47228;46.762;23.598;2023-10-19T05:26:00;96933.09;;;1.91;81.74
61359;BME280;47228;46.762;23.598;2023-10-19T05:28:30;96934.54;;;1.94;81.69
61359;BME280;47228;46.762;23.598;2023-10-19T05:30:59;96934.16;;;1.96;81.85
61359;BME280;47228;46.762;23.598;2023-10-19T05:33:27;96932.42;;;1.99;81.71
61359;BME280;47228;46.762;23.598;2023-10-19T05:35:57;96932.44;;;2.01;81.63
61359;BME280;47228;46.762;23.598;2023-10-19T05:38:25;96942.59;;;2.01;81.41
61359;BME280;47228;46.762;23.598;2023-10-19T05:40:57;96946.58;;;1.99;81.33
61359;BME280;47228;46.762;23.598;2023-10-19T05:43:25;96937.08;;;2.00;81.50
61359;BME280;47228;46.762;23.598;2023-10-19T05:45:53;96929.10;;;2.05;82.12
61359;BME280;47228;46.762;23.598;2023-10-19T05:48:22;96933.19;;;2.11;82.22
61359;BME280;47228;46.762;23.598;2023-10-19T05:50:51;96940.66;;;2.19;82.47
61359;BME280;47228;46.762;23.598;2023-10-19T05:53:19;96933.41;;;2.29;82.46
61359;BME280;47228;46.762;23.598;2023-10-19T05:55:50;96929.56;;;2.37;82.24
61359;BME280;47228;46.762;23.598;2023-10-19T05:58:18;96924.01;;;2.44;82.15
61359;BME280;47228;46.762;23.598;2023-10-19T06:00:47;96921.66;;;2.48;81.71
61359;BME280;47228;46.762;23.598;2023-10-19T06:03:17;96922.13;;;2.50;81.63
61359;BME280;47228;46.762;23.598;2023-10-19T06:05:46;96928.57;;;2.52;81.39
61359;BME280;47228;46.762;23.598;2023-10-19T06:08:14;96931.67;;;2.55;81.53
61359;BME280;47228;46.762;23.598;2023-10-19T06:10:42;96936.38;;;2.59;81.54
61359;BME280;47228;46.762;23.598;2023-10-19T06:13:10;96941.23;;;2.65;81.63
61359;BME280;47228;46.762;23.598;2023-10-19T06:15:38;96937.90;;;2.70;81.49
61359;BME280;47228;46.762;23.598;2023-10-19T06:18:06;96930.21;;;2.75;81.49
61359;BME280;47228;46.762;23.598;2023-10-19T06:20:34;96928.05;;;2.79;81.33
61359;BME280;47228;46.762;23.598;2023-10-19T06:23:03;96931.27;;;2.80;81.06
61359;BME280;47228;46.762;23.598;2023-10-19T06:25:33;96931.96;;;2.80;80.70
61359;BME280;47228;46.762;23.598;2023-10-19T06:28:05;96926.52;;;2.78;80.41
61359;BME280;47228;46.762;23.598;2023-10-19T06:30:33;96924.69;;;2.78;80.63
61359;BME280;47228;46.762;23.598;2023-10-19T06:33:01;96921.79;;;2.78;80.68
61359;BME280;47228;46.762;23.598;2023-10-19T06:35:30;96917.70;;;2.79;80.65
61359;BME280;47228;46.762;23.598;2023-10-19T06:38:02;96911.85;;;2.81;80.77
61359;BME280;47228;46.762;23.598;2023-10-19T06:40:34;96906.41;;;2.85;80.69
61359;BME280;47228;46.762;23.598;2023-10-19T06:43:04;96898.19;;;2.89;80.54
61359;BME280;47228;46.762;23.598;2023-10-19T06:45:33;96899.10;;;2.88;80.24
61359;BME280;47228;46.762;23.598;2023-10-19T06:48:01;96900.88;;;2.86;80.06
61359;BME280;47228;46.762;23.598;2023-10-19T06:50:29;96894.35;;;2.85;80.00
61359;BME280;47228;46.762;23.598;2023-10-19T06:52:58;96900.87;;;2.86;80.21
61359;BME280;47228;46.762;23.598;2023-10-19T06:55:26;96894.73;;;2.90;80.31
61359;BME280;47228;46.762;23.598;2023-10-19T06:57:56;96891.62;;;2.92;80.24
61359;BME280;47228;46.762;23.598;2023-10-19T07:00:25;96883.22;;;2.96;80.26
61359;BME280;47228;46.762;23.598;2023-10-19T07:02:57;96882.75;;;3.00;80.30
61359;BME280;47228;46.762;23.598;2023-10-19T07:05:28;96881.14;;;3.04;80.02
61359;BME280;47228;46.762;23.598;2023-10-19T07:08:00;96875.52;;;3.07;80.00
61359;BME280;47228;46.762;23.598;2023-10-19T07:10:29;96869.16;;;3.08;79.72
61359;BME280;47228;46.762;23.598;2023-10-19T07:12:58;96872.96;;;3.08;79.66
61359;BME280;47228;46.762;23.598;2023-10-19T07:15:26;96878.43;;;3.09;79.72
61359;BME280;47228;46.762;23.598;2023-10-19T07:17:56;96879.16;;;3.11;79.73
61359;BME280;47228;46.762;23.598;2023-10-19T07:20:24;96878.83;;;3.14;79.83
61359;BME280;47228;46.762;23.598;2023-10-19T07:23:03;96873.83;;;3.20;80.11
61359;BME280;47228;46.762;23.598;2023-10-19T07:25:38;96869.73;;;3.25;80.13
61359;BME280;47228;46.762;23.598;2023-10-19T07:28:12;96872.80;;;3.32;80.29
61359;BME280;47228;46.762;23.598;2023-10-19T07:30:42;96874.69;;;3.39;80.22
61359;BME280;47228;46.762;23.598;2023-10-19T07:33:10;96873.25;;;3.46;80.02
61359;BME280;47228;46.762;23.598;2023-10-19T07:35:46;96868.45;;;3.50;79.78
61359;BME280;47228;46.762;23.598;2023-10-19T07:38:15;96869.62;;;3.52;79.45
61359;BME280;47228;46.762;23.598;2023-10-19T07:40:44;96865.11;;;3.53;79.29
61359;BME280;47228;46.762;23.598;2023-10-19T07:43:12;96857.50;;;3.56;79.19
61359;BME280;47228;46.762;23.598;2023-10-19T07:45:40;96847.52;;;3.58;79.15
61359;BME280;47228;46.762;23.598;2023-10-19T07:48:11;96840.60;;;3.60;79.50
61359;BME280;47228;46.762;23.598;2023-10-19T07:50:40;96838.27;;;3.62;79.17
61359;BME280;47228;46.762;23.598;2023-10-19T07:53:11;96832.64;;;3.64;79.10
61359;BME280;47228;46.762;23.598;2023-10-19T07:55:39;96829.67;;;3.65;78.92
61359;BME280;47228;46.762;23.598;2023-10-19T07:58:08;96827.58;;;3.70;79.45
61359;BME280;47228;46.762;23.598;2023-10-19T08:00:36;96817.03;;;3.78;79.76
61359;BME280;47228;46.762;23.598;2023-10-19T08:03:05;96812.71;;;3.87;79.63
61359;BME280;47228;46.762;23.598;2023-10-19T08:05:37;96810.71;;;3.96;79.80
61359;BME280;47228;46.762;23.598;2023-10-19T08:08:06;96811.50;;;4.01;79.63
61359;BME280;47228;46.762;23.598;2023-10-19T08:10:34;96809.70;;;4.05;79.53
61359;BME280;47228;46.762;23.598;2023-10-19T08:13:03;96800.73;;;4.09;79.85
61359;BME280;47228;46.762;23.598;2023-10-19T08:15:31;96795.06;;;4.16;80.09
61359;BME280;47228;46.762;23.598;2023-10-19T08:17:59;96795.64;;;4.24;80.24
61359;BME280;47228;46.762;23.598;2023-10-19T08:20:27;96797.31;;;4.32;80.54
61359;BME280;47228;46.762;23.598;2023-10-19T08:23:00;96800.02;;;4.42;80.79
61359;BME280;47228;46.762;23.598;2023-10-19T08:25:33;96801.19;;;4.50;80.80
61359;BME280;47228;46.762;23.598;2023-10-19T08:28:22;96794.19;;;4.58;80.95
61359;BME280;47228;46.762;23.598;2023-10-19T08:30:51;96795.74;;;4.64;81.24
61359;BME280;47228;46.762;23.598;2023-10-19T08:33:26;96800.74;;;4.71;81.47
61359;BME280;47228;46.762;23.598;2023-10-19T08:35:55;96802.73;;;4.77;81.64
61359;BME280;47228;46.762;23.598;2023-10-19T08:38:28;96806.73;;;4.82;81.90
61359;BME280;47228;46.762;23.598;2023-10-19T08:40:57;96801.85;;;4.89;82.15
61359;BME280;47228;46.762;23.598;2023-10-19T08:43:25;96799.48;;;4.96;82.48
61359;BME280;47228;46.762;23.598;2023-10-19T08:45:54;96790.59;;;5.03;82.92
61359;BME280;47228;46.762;23.598;2023-10-19T08:48:22;96784.39;;;5.10;82.81
61359;BME280;47228;46.762;23.598;2023-10-19T08:50:51;96789.64;;;5.17;83.26
61359;BME280;47228;46.762;23.598;2023-10-19T08:53:21;96793.09;;;5.28;83.65
61359;BME280;47228;46.762;23.598;2023-10-19T08:55:49;96798.62;;;5.39;83.97
61359;BME280;47228;46.762;23.598;2023-10-19T08:58:19;96802.61;;;5.51;84.32
61359;BME280;47228;46.762;23.598;2023-10-19T09:00:49;96806.63;;;5.65;84.78
61359;BME280;47228;46.762;23.598;2023-10-19T09:03:24;96804.27;;;5.80;84.58
61359;BME280;47228;46.762;23.598;2023-10-19T09:05:54;96802.57;;;5.92;84.44
61359;BME280;47228;46.762;23.598;2023-10-19T09:08:24;96805.38;;;6.04;84.43
61359;BME280;47228;46.762;23.598;2023-10-19T09:10:53;96805.22;;;6.14;84.58
61359;BME280;47228;46.762;23.598;2023-10-19T09:13:22;96799.48;;;6.23;84.42
61359;BME280;47228;46.762;23.598;2023-10-19T09:15:53;96784.42;;;6.31;84.10
61359;BME280;47228;46.762;23.598;2023-10-19T09:18:25;96790.88;;;6.41;83.80
61359;BME280;47228;46.762;23.598;2023-10-19T09:20:58;96799.84;;;6.51;84.09
61359;BME280;47228;46.762;23.598;2023-10-19T09:23:36;96794.40;;;6.62;83.95
61359;BME280;47228;46.762;23.598;2023-10-19T09:26:05;96787.50;;;6.74;84.23
61359;BME280;47228;46.762;23.598;2023-10-19T09:28:36;96787.81;;;6.84;83.93
61359;BME280;47228;46.762;23.598;2023-10-19T09:31:06;96784.88;;;6.90;83.03
61359;BME280;47228;46.762;23.598;2023-10-19T09:33:40;96785.92;;;6.94;82.96
61359;BME280;47228;46.762;23.598;2023-10-19T09:36:10;96785.41;;;6.98;82.81
61359;BME280;47228;46.762;23.598;2023-10-19T09:38:49;96785.48;;;7.03;82.89
61359;BME280;47228;46.762;23.598;2023-10-19T09:41:21;96777.44;;;7.08;82.89
61359;BME280;47228;46.762;23.598;2023-10-19T09:43:50;96766.63;;;7.15;82.93
61359;BME280;47228;46.762;23.598;2023-10-19T09:46:23;96761.39;;;7.19;82.96
61359;BME280;47228;46.762;23.598;2023-10-19T09:48:52;96759.51;;;7.25;82.89
61359;BME280;47228;46.762;23.598;2023-10-19T09:51:20;96757.27;;;7.30;82.70
61359;BME280;47228;46.762;23.598;2023-10-19T09:54:05;96747.05;;;7.37;82.86
61359;BME280;47228;46.762;23.598;2023-10-19T09:56:40;96739.46;;;7.45;82.88
61359;BME280;47228;46.762;23.598;2023-10-19T09:59:38;96732.90;;;7.54;82.53
61359;BME280;47228;46.762;23.598;2023-10-19T10:02:09;96723.70;;;7.63;82.08
61359;BME280;47228;46.762;23.598;2023-10-19T10:04:42;96723.27;;;7.72;81.99
61359;BME280;47228;46.762;23.598;2023-10-19T10:07:14;96716.77;;;7.78;81.39
61359;BME280;47228;46.762;23.598;2023-10-19T10:10:03;96713.89;;;7.85;80.90
61359;BME280;47228;46.762;23.598;2023-10-19T10:12:32;96716.27;;;7.93;80.95
61359;BME280;47228;46.762;23.598;2023-10-19T10:15:06;96713.88;;;7.99;80.64
61359;BME280;47228;46.762;23.598;2023-10-19T10:17:38;96710.41;;;8.04;80.26
61359;BME280;47228;46.762;23.598;2023-10-19T10:22:42;96684.29;;;8.16;80.01
61359;BME280;47228;46.762;23.598;2023-10-19T10:25:27;96682.45;;;8.24;79.85
61359;BME280;47228;46.762;23.598;2023-10-19T10:27:56;96678.90;;;8.33;79.56
61359;BME280;47228;46.762;23.598;2023-10-19T10:30:24;96675.59;;;8.44;79.07
61359;BME280;47228;46.762;23.598;2023-10-19T10:32:53;96673.02;;;8.54;79.07
61359;BME280;47228;46.762;23.598;2023-10-19T10:38:05;96668.61;;;8.77;78.68
61359;BME280;47228;46.762;23.598;2023-10-19T10:43:12;96650.48;;;8.94;77.37
61359;BME280;47228;46.762;23.598;2023-10-19T10:45:40;96643.84;;;9.01;77.34
61359;BME280;47228;46.762;23.598;2023-10-19T10:48:15;96639.89;;;9.09;77.21
61359;BME280;47228;46.762;23.598;2023-10-19T10:50:44;96629.45;;;9.20;76.97
61359;BME280;47228;46.762;23.598;2023-10-19T10:53:14;96625.96;;;9.31;76.58
61359;BME280;47228;46.762;23.598;2023-10-19T10:55:45;96621.81;;;9.42;76.10
61359;BME280;47228;46.762;23.598;2023-10-19T10:58:17;96614.37;;;9.53;75.96
61359;BME280;47228;46.762;23.598;2023-10-19T11:00:46;96607.16;;;9.63;75.71
61359;BME280;47228;46.762;23.598;2023-10-19T11:03:16;96601.30;;;9.72;74.75
61359;BME280;47228;46.762;23.598;2023-10-19T11:05:45;96594.88;;;9.78;74.02
61359;BME280;47228;46.762;23.598;2023-10-19T11:08:16;96585.69;;;9.85;74.04
61359;BME280;47228;46.762;23.598;2023-10-19T11:10:46;96588.32;;;9.91;74.18
61359;BME280;47228;46.762;23.598;2023-10-19T11:13:16;96590.92;;;9.98;74.20
61359;BME280;47228;46.762;23.598;2023-10-19T11:15:52;96583.94;;;10.06;73.81
61359;BME280;47228;46.762;23.598;2023-10-19T11:18:39;96577.73;;;10.15;73.13
61359;BME280;47228;46.762;23.598;2023-10-19T11:21:09;96575.31;;;10.23;72.88
61359;BME280;47228;46.762;23.598;2023-10-19T11:23:43;96568.95;;;10.31;72.73
61359;BME280;47228;46.762;23.598;2023-10-19T11:26:13;96568.65;;;10.40;72.67
61359;BME280;47228;46.762;23.598;2023-10-19T11:28:42;96568.52;;;10.50;72.14
61359;BME280;47228;46.762;23.598;2023-10-19T11:31:20;96568.02;;;10.59;71.98
61359;BME280;47228;46.762;23.598;2023-10-19T11:33:53;96562.02;;;10.66;71.44
61359;BME280;47228;46.762;23.598;2023-10-19T11:36:23;96559.84;;;10.72;70.98
61359;BME280;47228;46.762;23.598;2023-10-19T11:38:53;96554.95;;;10.78;70.70
61359;BME280;47228;46.762;23.598;2023-10-19T11:41:21;96546.13;;;10.84;70.54
61359;BME280;47228;46.762;23.598;2023-10-19T11:43:51;96542.58;;;10.90;70.38
61359;BME280;47228;46.762;23.598;2023-10-19T11:46:21;96545.96;;;10.96;70.33
61359;BME280;47228;46.762;23.598;2023-10-19T11:48:51;96542.17;;;11.02;70.25
61359;BME280;47228;46.762;23.598;2023-10-19T11:51:19;96541.16;;;11.06;69.99
61359;BME280;47228;46.762;23.598;2023-10-19T11:53:47;96536.95;;;11.12;69.48
61359;BME280;47228;46.762;23.598;2023-10-19T11:56:15;96532.19;;;11.19;69.32
61359;BME280;47228;46.762;23.598;2023-10-19T11:58:44;96529.13;;;11.27;69.11
61359;BME280;47228;46.762;23.598;2023-10-19T12:01:15;96531.14;;;11.35;69.07
61359;BME280;47228;46.762;23.598;2023-10-19T12:03:45;96533.29;;;11.42;68.90
61359;BME280;47228;46.762;23.598;2023-10-19T12:06:14;96526.94;;;11.48;69.07
61359;BME280;47228;46.762;23.598;2023-10-19T12:08:47;96522.01;;;11.51;69.09
61359;BME280;47228;46.762;23.598;2023-10-19T12:11:15;96516.20;;;11.54;68.38
61359;BME280;47228;46.762;23.598;2023-10-19T12:13:45;96503.97;;;11.56;68.43
61359;BME280;47228;46.762;23.598;2023-10-19T12:16:14;96494.03;;;11.58;68.48
61359;BME280;47228;46.762;23.598;2023-10-19T12:18:46;96491.80;;;11.61;68.68
61359;BME280;47228;46.762;23.598;2023-10-19T12:21:16;96487.77;;;11.64;68.87
61359;BME280;47228;46.762;23.598;2023-10-19T12:23:46;96489.90;;;11.69;68.86
61359;BME280;47228;46.762;23.598;2023-10-19T12:26:24;96486.59;;;11.72;69.26
61359;BME280;47228;46.762;23.598;2023-10-19T12:28:52;96483.11;;;11.77;69.43
61359;BME280;47228;46.762;23.598;2023-10-19T12:31:20;96468.98;;;11.81;69.19
61359;BME280;47228;46.762;23.598;2023-10-19T12:33:51;96450.83;;;11.85;68.77
61359;BME280;47228;46.762;23.598;2023-10-19T12:36:19;96453.31;;;11.90;68.64
61359;BME280;47228;46.762;23.598;2023-10-19T12:38:56;96472.02;;;11.94;68.80
61359;BME280;47228;46.762;23.598;2023-10-19T12:41:25;96481.67;;;11.97;68.41
61359;BME280;47228;46.762;23.598;2023-10-19T12:43:53;96485.25;;;11.99;67.57
61359;BME280;47228;46.762;23.598;2023-10-19T12:46:30;96481.21;;;12.03;66.96
61359;BME280;47228;46.762;23.598;2023-10-19T12:48:59;96472.23;;;12.07;66.50
61359;BME280;47228;46.762;23.598;2023-10-19T12:51:27;96465.62;;;12.12;65.92
61359;BME280;47228;46.762;23.598;2023-10-19T12:53:55;96466.88;;;12.17;65.96
61359;BME280;47228;46.762;23.598;2023-10-19T12:56:24;96464.04;;;12.21;66.01
61359;BME280;47228;46.762;23.598;2023-10-19T12:58:57;96455.98;;;12.26;65.57
61359;BME280;47228;46.762;23.598;2023-10-19T13:01:25;96452.86;;;12.30;65.14
61359;BME280;47228;46.762;23.598;2023-10-19T13:03:56;96442.40;;;12.34;65.12
61359;BME280;47228;46.762;23.598;2023-10-19T13:06:24;96436.27;;;12.38;64.82
61359;BME280;47228;46.762;23.598;2023-10-19T13:08:57;96431.76;;;12.43;64.74
61359;BME280;47228;46.762;23.598;2023-10-19T13:11:25;96433.06;;;12.45;64.55
61359;BME280;47228;46.762;23.598;2023-10-19T13:13:55;96429.33;;;12.47;64.73
61359;BME280;47228;46.762;23.598;2023-10-19T13:16:23;96422.38;;;12.48;64.89
61359;BME280;47228;46.762;23.598;2023-10-19T13:18:53;96421.70;;;12.49;65.40
61359;BME280;47228;46.762;23.598;2023-10-19T13:21:21;96425.14;;;12.51;65.56
61359;BME280;47228;46.762;23.598;2023-10-19T13:23:55;96422.07;;;12.55;65.49
61359;BME280;47228;46.762;23.598;2023-10-19T13:26:23;96421.27;;;12.59;65.47